Airfield :
LOGIN :

Register | Disclaimer

   EN    FR    IT 

 










Legend :    VFR   Marginal VFR   IFR   Intensive IFR   Very Intensive IFR
Visi :
Ceiling :
>= 8 km
>= 3000ft
5 to 8 km
1000 to 3000 ft
1500m to 5 km
500 to 1000 ft
800 to 1500m
200 to 500 ft
< 800m
< 200 ft
Symbols :   Thunderstorms  Fog  Heavy snow  Heavy precipitations  Wind > 20 kt
SIGMETs :     Misc.  Thunderstorms  Icing  Turbulence  Mountain Waves  Volcanic Ashes






- Airport Elevation : 370 ft


EBBE - Beauvechain AB

CURRENT METAR :
  • 191925Z AUTO 06005KT 9999 FEW095/// BKN250/// 20/12 Q1015 BLU

EXPIRED METARs :
  • 191855Z AUTO 06004KT 9999 NCD 21/12 Q1015 BLU
  • 191825Z AUTO 06005KT 9999 FEW095/// 22/13 Q1015 BLU
  • 191755Z AUTO 06005KT 9999 NCD 22/13 Q1015 BLU
  • 191725Z AUTO 06005KT 9999 NCD 23/14 Q1015 BLU
  • 191655Z AUTO 06007KT 9999 FEW110/// 24/13 Q1014 BLU
  • 191625Z AUTO 05009KT 9999 SCT100/// 25/13 Q1014 BLU

Expired Forecast.



MET'MAP, your aeronautical weather chart ! - Copyright ORBIFLY December 2007 - Disclaimer

ORBIFLY MET'MAP TEAM :

Programming & Development : Alexandra Zaïnal
Concept & original design : Baudouin d'Aumeries
Assistance for programming : Marc-Olivier Méhu
Technical & hardware support : Manuel Goepfert

Contact : metmap@orbifly.com




SOURCES & CREDITS :

   NOAA